createdAt,value
2019-04-07T00:01:19.401Z,33.50
2019-04-07T00:03:51.665Z,31.83
2019-04-07T00:06:22.442Z,32.50
2019-04-07T00:08:54.518Z,31.23
2019-04-07T00:11:29.269Z,30.13
2019-04-07T00:14:00.258Z,30.90
2019-04-07T00:16:31.119Z,29.87
2019-04-07T00:19:07.076Z,30.67
2019-04-07T00:21:40.853Z,31.90
2019-04-07T00:24:13.703Z,32.53
2019-04-07T00:26:47.492Z,34.03
2019-04-07T00:29:18.172Z,33.43
2019-04-07T00:31:48.575Z,34.53
2019-04-07T00:34:19.210Z,34.07
2019-04-07T00:36:49.660Z,33.23
2019-04-07T00:39:20.708Z,33.87
2019-04-07T00:41:58.327Z,32.07
2019-04-07T00:44:29.174Z,34.30
2019-04-07T00:47:00.984Z,34.60
2019-04-07T00:49:32.910Z,32.70
2019-04-07T00:52:08.319Z,31.40
2019-04-07T00:54:40.245Z,31.40
2019-04-07T00:57:14.212Z,31.43
2019-04-07T00:59:48.939Z,31.13
2019-04-07T01:02:19.615Z,40.33
2019-04-07T01:04:55.035Z,31.03
2019-04-07T01:07:25.768Z,31.20
2019-04-07T01:09:56.114Z,32.37
2019-04-07T01:12:26.559Z,32.63
2019-04-07T01:14:57.314Z,31.43
2019-04-07T01:17:29.085Z,32.13
2019-04-07T01:19:59.795Z,39.80
2019-04-07T01:22:30.877Z,32.17
2019-04-07T01:25:01.589Z,30.73
2019-04-07T01:27:32.012Z,32.40
2019-04-07T01:30:02.941Z,33.40
2019-04-07T01:32:33.319Z,32.67
2019-04-07T01:35:04.718Z,42.10
2019-04-07T01:37:35.318Z,31.33
2019-04-07T01:40:16.847Z,31.40
2019-04-07T01:43:21.709Z,29.90
2019-04-07T01:46:11.215Z,41.00
2019-04-07T01:48:57.452Z,30.43
2019-04-07T01:51:43.805Z,31.50
2019-04-07T01:54:36.224Z,38.90
2019-04-07T01:57:23.551Z,32.87
2019-04-07T02:00:12.611Z,31.77
2019-04-07T02:03:01.020Z,40.13
2019-04-07T02:05:58.620Z,30.40
2019-04-07T02:08:46.364Z,31.93
2019-04-07T02:11:27.554Z,38.30
2019-04-07T02:14:23.281Z,31.93
2019-04-07T02:17:05.399Z,30.53
2019-04-07T02:19:49.984Z,30.37
2019-04-07T02:22:42.392Z,38.13
2019-04-07T02:25:19.938Z,31.90
2019-04-07T02:28:08.299Z,31.80
2019-04-07T02:30:56.274Z,39.07
2019-04-07T02:33:37.199Z,29.07
2019-04-07T02:36:23.952Z,30.20
2019-04-07T02:39:11.959Z,35.43
2019-04-07T02:42:15.112Z,36.47
2019-04-07T02:45:07.676Z,34.40
2019-04-07T02:47:51.343Z,35.03
2019-04-07T02:50:43.800Z,42.57
2019-04-07T02:53:31.001Z,33.07
2019-04-07T02:56:27.987Z,40.40
2019-04-07T02:59:21.513Z,32.27
2019-04-07T03:02:00.221Z,33.80
2019-04-07T03:04:50.155Z,33.40
2019-04-07T03:07:39.979Z,34.33
2019-04-07T03:10:25.068Z,43.60
2019-04-07T03:13:07.565Z,33.17
2019-04-07T03:15:49.586Z,34.13
2019-04-07T03:18:35.889Z,32.63
2019-04-07T03:21:28.426Z,40.23
2019-04-07T03:24:21.085Z,45.57
2019-04-07T03:27:13.777Z,34.30
2019-04-07T03:30:03.973Z,34.93
2019-04-07T03:32:54.383Z,55.90
2019-04-07T03:35:40.453Z,47.13
2019-04-07T03:38:39.343Z,39.60
2019-04-07T03:41:35.168Z,38.83
2019-04-07T03:44:14.630Z,46.47
2019-04-07T03:46:59.650Z,35.67
2019-04-07T03:49:43.967Z,37.67
2019-04-07T03:52:34.017Z,34.93
2019-04-07T03:55:28.263Z,37.73
2019-04-07T03:58:12.297Z,36.37
2019-04-07T04:01:39.225Z,35.20
2019-04-07T04:04:37.483Z,37.30
2019-04-07T04:07:39.798Z,38.90
2019-04-07T04:10:19.202Z,39.33
2019-04-07T04:13:15.099Z,40.43
2019-04-07T04:15:50.120Z,47.67
2019-04-07T04:18:20.707Z,40.67
2019-04-07T04:20:51.162Z,35.13
2019-04-07T04:23:22.008Z,34.77
2019-04-07T04:25:52.495Z,34.73
2019-04-07T04:28:23.682Z,36.07
2019-04-07T04:30:56.485Z,36.43
2019-04-07T04:33:27.598Z,42.90
2019-04-07T04:35:59.072Z,34.87
2019-04-07T04:38:30.582Z,33.87
2019-04-07T04:41:01.379Z,33.93
2019-04-07T04:43:32.236Z,34.67
2019-04-07T04:46:09.333Z,34.10
2019-04-07T04:48:37.420Z,32.53
2019-04-07T04:51:08.514Z,41.60
2019-04-07T04:53:40.282Z,33.13
2019-04-07T04:56:12.918Z,35.83
2019-04-07T04:58:44.345Z,38.43
2019-04-07T05:01:16.241Z,36.60
2019-04-07T05:03:47.486Z,34.63
2019-04-07T05:06:18.146Z,33.83
2019-04-07T05:08:48.631Z,34.77
2019-04-07T05:11:19.094Z,36.97
2019-04-07T05:13:53.042Z,35.33
2019-04-07T05:16:23.989Z,42.93
2019-04-07T05:18:54.711Z,34.77
2019-04-07T05:21:26.164Z,34.07
2019-04-07T05:23:56.799Z,36.10
2019-04-07T05:26:28.030Z,36.20
2019-04-07T05:28:59.355Z,36.33
2019-04-07T05:31:30.463Z,37.93
2019-04-07T05:34:00.917Z,37.47
2019-04-07T05:36:32.456Z,41.77
2019-04-07T05:39:07.486Z,41.40
2019-04-07T05:41:40.026Z,38.83
2019-04-07T05:44:10.442Z,46.07
2019-04-07T05:46:42.555Z,36.87
2019-04-07T05:49:15.936Z,35.80
2019-04-07T05:51:45.880Z,36.60
2019-04-07T05:54:17.365Z,37.37
2019-04-07T05:56:49.193Z,36.27
2019-04-07T05:59:19.900Z,37.80
2019-04-07T06:01:52.506Z,36.73
2019-04-07T06:04:22.431Z,37.97
2019-04-07T06:06:55.335Z,44.30
2019-04-07T06:09:25.400Z,41.90
2019-04-07T06:11:56.041Z,41.50
2019-04-07T06:14:26.813Z,35.80
2019-04-07T06:16:57.342Z,37.60
2019-04-07T06:19:27.689Z,35.70
2019-04-07T06:21:58.131Z,36.43
2019-04-07T06:24:31.498Z,34.63
2019-04-07T06:27:03.394Z,35.77
2019-04-07T06:29:33.492Z,35.40
2019-04-07T06:32:05.587Z,34.97
2019-04-07T06:34:41.091Z,34.03
2019-04-07T06:37:13.248Z,34.27
2019-04-07T06:39:44.295Z,33.60
2019-04-07T06:42:14.749Z,32.53
2019-04-07T06:44:45.788Z,30.47
2019-04-07T06:47:23.785Z,31.07
2019-04-07T06:50:17.033Z,30.90
2019-04-07T06:53:10.721Z,29.83
2019-04-07T06:56:00.059Z,30.60
2019-04-07T06:58:47.347Z,29.33
2019-04-07T07:01:45.888Z,28.93
2019-04-07T07:04:33.791Z,27.27
2019-04-07T07:07:35.741Z,28.43
2019-04-07T07:10:30.419Z,29.23
2019-04-07T07:13:28.335Z,29.47
2019-04-07T07:15:58.557Z,28.67
2019-04-07T07:18:48.775Z,26.57
2019-04-07T07:21:27.404Z,25.47
2019-04-07T07:23:59.164Z,24.53
2019-04-07T07:26:34.572Z,25.67
2019-04-07T07:29:06.718Z,24.20
2019-04-07T07:31:37.944Z,23.03
2019-04-07T07:34:11.070Z,21.83
2019-04-07T07:36:41.789Z,20.93
2019-04-07T07:39:14.566Z,22.27
2019-04-07T07:41:50.346Z,22.80
2019-04-07T07:44:20.565Z,21.87
2019-04-07T07:46:52.925Z,21.10
2019-04-07T07:49:32.473Z,22.43
2019-04-07T07:51:59.267Z,22.70
2019-04-07T07:54:30.609Z,21.80
2019-04-07T07:57:01.386Z,20.10
2019-04-07T07:59:37.634Z,20.30
2019-04-07T08:02:08.684Z,17.33
2019-04-07T08:04:44.305Z,17.47
2019-04-07T08:07:16.361Z,18.30
2019-04-07T08:09:48.255Z,19.50
2019-04-07T08:12:25.416Z,20.23
2019-04-07T08:15:03.803Z,19.10
2019-04-07T08:17:43.323Z,17.07
2019-04-07T08:20:32.598Z,16.53
2019-04-07T08:23:13.212Z,15.43
2019-04-07T08:25:44.033Z,15.80
2019-04-07T08:28:26.480Z,14.67
2019-04-07T08:30:58.685Z,13.77
2019-04-07T08:33:29.813Z,14.60
2019-04-07T08:36:00.888Z,14.23
2019-04-07T08:38:31.249Z,14.67
2019-04-07T08:41:04.185Z,14.30
2019-04-07T08:43:37.735Z,13.17
2019-04-07T08:46:08.816Z,12.13
2019-04-07T08:48:40.129Z,13.23
2019-04-07T08:51:11.306Z,13.73
2019-04-07T08:53:45.118Z,13.60
2019-04-07T08:56:15.589Z,15.40
2019-04-07T08:58:47.823Z,14.07
2019-04-07T09:01:34.921Z,13.43
2019-04-07T09:04:09.830Z,15.13
2019-04-07T09:07:15.377Z,14.00
2019-04-07T09:13:14.932Z,12.63
2019-04-07T09:20:41.893Z,12.20
2019-04-07T09:24:11.457Z,12.27
2019-04-07T09:35:11.254Z,12.70
2019-04-07T09:38:35.454Z,12.67
2019-04-07T09:42:04.200Z,13.53
2019-04-07T09:45:29.994Z,12.37
2019-04-07T09:48:50.969Z,13.30
2019-04-07T09:52:16.115Z,13.87
2019-04-07T09:55:25.771Z,14.13
2019-04-07T09:58:35.831Z,13.97
2019-04-07T10:01:23.330Z,13.07
2019-04-07T10:04:02.700Z,14.27
2019-04-07T10:07:11.097Z,13.40
2019-04-07T10:09:50.298Z,13.50
2019-04-07T10:12:58.686Z,13.10
2019-04-07T10:15:47.485Z,12.57
2019-04-07T10:18:38.278Z,12.33
2019-04-07T10:21:36.865Z,12.37
2019-04-07T10:24:30.241Z,12.23
2019-04-07T10:27:23.426Z,13.00
2019-04-07T10:30:14.705Z,12.03
2019-04-07T10:33:23.746Z,11.03
2019-04-07T10:36:16.823Z,11.60
2019-04-07T10:39:07.190Z,12.00
2019-04-07T10:42:29.730Z,11.67
2019-04-07T10:45:22.895Z,13.10
2019-04-07T10:48:11.122Z,13.73
2019-04-07T10:51:01.149Z,13.27
2019-04-07T10:53:49.465Z,14.83
2019-04-07T10:56:24.360Z,14.80
2019-04-07T10:59:25.598Z,15.77
2019-04-07T11:02:16.857Z,16.30
2019-04-07T11:05:05.216Z,16.70
2019-04-07T11:07:56.988Z,16.93
2019-04-07T11:10:55.536Z,17.93
2019-04-07T11:13:38.691Z,18.57
2019-04-07T11:16:44.201Z,19.03
2019-04-07T11:19:28.551Z,19.30
2019-04-07T11:22:21.004Z,20.83
2019-04-07T11:25:20.726Z,20.00
2019-04-07T11:28:29.125Z,19.70
2019-04-07T11:31:05.721Z,19.90
2019-04-07T11:34:05.513Z,19.53
2019-04-07T11:36:54.990Z,21.17
2019-04-07T11:39:47.954Z,21.00
2019-04-07T11:42:33.299Z,20.60
2019-04-07T11:45:31.488Z,21.87
2019-04-07T11:48:12.492Z,19.90
2019-04-07T11:51:07.287Z,20.10
2019-04-07T11:53:45.945Z,19.83
2019-04-07T11:56:48.097Z,19.70
2019-04-07T11:59:46.869Z,20.83
2019-04-07T12:02:43.358Z,20.13
2019-04-07T12:05:44.167Z,21.13
2019-04-07T12:08:36.164Z,20.93
2019-04-07T12:11:16.765Z,19.60
2019-04-07T12:14:07.366Z,21.30
2019-04-07T12:16:58.401Z,22.07
2019-04-07T12:19:43.027Z,19.80
2019-04-07T12:22:44.759Z,21.17
2019-04-07T12:25:25.807Z,20.17
2019-04-07T12:28:18.894Z,21.13
2019-04-07T12:31:06.446Z,22.50
2019-04-07T12:33:46.003Z,22.70
2019-04-07T12:36:45.078Z,21.57
2019-04-07T12:39:53.330Z,21.80
2019-04-07T12:42:50.322Z,20.47
2019-04-07T12:45:39.022Z,20.73
2019-04-07T12:48:32.028Z,21.33
2019-04-07T12:51:35.076Z,21.30
2019-04-07T12:54:28.928Z,20.20
2019-04-07T12:57:35.339Z,20.00
2019-04-07T13:00:24.756Z,20.17
2019-04-07T13:03:14.523Z,19.70
2019-04-07T13:06:11.725Z,20.57
2019-04-07T13:09:08.142Z,20.50
2019-04-07T13:12:03.071Z,19.00
2019-04-07T13:14:44.021Z,18.93
2019-04-07T13:17:38.151Z,19.60
2019-04-07T13:20:29.707Z,19.33
2019-04-07T13:23:11.208Z,19.40
2019-04-07T13:26:02.205Z,19.83
2019-04-07T13:29:10.717Z,21.27
2019-04-07T13:32:03.399Z,20.40
2019-04-07T13:34:58.849Z,20.10
2019-04-07T13:37:57.667Z,18.83
2019-04-07T13:40:44.089Z,19.90
2019-04-07T13:43:42.134Z,19.87
2019-04-07T13:46:34.830Z,19.97
2019-04-07T13:49:32.197Z,20.27
2019-04-07T13:52:23.085Z,18.20
2019-04-07T13:55:05.949Z,17.37
2019-04-07T13:58:00.367Z,20.13
2019-04-07T14:00:50.980Z,18.33
2019-04-07T14:03:56.528Z,19.33
2019-04-07T14:06:47.982Z,17.43
2019-04-07T14:10:05.146Z,18.20
2019-04-07T14:12:54.390Z,18.57
2019-04-07T14:15:45.549Z,19.43
2019-04-07T14:18:32.384Z,20.17
2019-04-07T14:21:33.864Z,18.57
2019-04-07T14:24:27.176Z,18.47
2019-04-07T14:27:22.096Z,19.67
2019-04-07T14:30:18.121Z,20.23
2019-04-07T14:33:07.670Z,20.53
2019-04-07T14:36:07.374Z,19.70
2019-04-07T14:38:43.089Z,20.33
2019-04-07T14:41:31.353Z,20.93
2019-04-07T14:44:22.540Z,19.53
2019-04-07T14:47:27.306Z,19.17
2019-04-07T14:50:18.977Z,19.63
2019-04-07T14:53:07.748Z,18.77
2019-04-07T14:56:04.438Z,19.70
2019-04-07T14:58:48.423Z,20.67
2019-04-07T15:01:22.501Z,21.50
2019-04-07T15:03:53.424Z,20.53
2019-04-07T15:06:28.399Z,19.97
2019-04-07T15:09:04.638Z,19.10
2019-04-07T15:11:46.727Z,19.33
2019-04-07T15:17:53.210Z,19.97
2019-04-07T15:20:25.734Z,20.77
2019-04-07T15:22:59.862Z,20.27
2019-04-07T15:25:31.991Z,19.60
2019-04-07T15:28:17.511Z,20.23
2019-04-07T15:30:53.409Z,19.53
2019-04-07T15:36:30.042Z,20.43
2019-04-07T15:39:30.046Z,20.23
2019-04-07T15:42:09.496Z,19.20
2019-04-07T15:45:21.654Z,20.23
2019-04-07T15:48:13.646Z,20.33
2019-04-07T15:50:45.805Z,20.10
2019-04-07T15:53:20.922Z,20.13
2019-04-07T15:56:01.991Z,19.27
2019-04-07T15:59:01.047Z,21.10
2019-04-07T16:01:59.349Z,20.10
2019-04-07T16:04:36.258Z,20.00
2019-04-07T16:07:06.973Z,20.53
2019-04-07T16:09:51.018Z,20.43
2019-04-07T16:12:19.834Z,20.43
2019-04-07T16:14:54.704Z,19.70
2019-04-07T16:17:25.423Z,21.30
2019-04-07T16:20:20.657Z,19.50
2019-04-07T16:22:47.967Z,18.87
2019-04-07T16:25:19.540Z,19.87
2019-04-07T16:27:51.021Z,20.23
2019-04-07T16:30:23.212Z,19.43
2019-04-07T16:33:00.977Z,20.53
2019-04-07T16:35:29.882Z,20.03
2019-04-07T16:38:02.754Z,20.33
2019-04-07T16:40:33.908Z,19.67
2019-04-07T16:43:13.467Z,19.63
2019-04-07T16:45:37.025Z,19.97
2019-04-07T16:48:07.829Z,18.13
2019-04-07T16:50:39.390Z,20.13
2019-04-07T16:53:11.876Z,19.17
2019-04-07T16:55:48.969Z,19.40
2019-04-07T16:58:17.873Z,19.50
2019-04-07T17:00:49.717Z,19.20
2019-04-07T17:03:20.576Z,19.43
2019-04-07T17:05:55.638Z,18.43
2019-04-07T17:08:24.727Z,18.87
2019-04-07T17:10:59.562Z,19.93
2019-04-07T17:13:38.579Z,19.47
2019-04-07T17:16:04.693Z,18.97
2019-04-07T17:18:49.054Z,19.87
2019-04-07T17:21:22.279Z,19.10
2019-04-07T17:23:55.760Z,18.10
2019-04-07T17:26:27.518Z,19.20
2019-04-07T17:29:01.385Z,19.23
2019-04-07T17:31:32.669Z,19.07
2019-04-07T17:34:09.866Z,18.97
2019-04-07T17:36:39.411Z,18.27
2019-04-07T17:39:40.549Z,19.37
2019-04-07T17:42:15.530Z,20.10
2019-04-07T17:45:04.332Z,20.43
2019-04-07T17:47:53.909Z,19.53
2019-04-07T17:51:07.377Z,19.97
2019-04-07T17:53:57.179Z,20.40
2019-04-07T17:56:44.257Z,20.67
2019-04-07T17:59:40.152Z,19.97
2019-04-07T18:02:35.941Z,19.90
2019-04-07T18:05:32.445Z,20.37
2019-04-07T18:08:16.752Z,19.33
2019-04-07T18:11:21.913Z,19.77
2019-04-07T18:14:14.357Z,19.80
2019-04-07T18:16:59.190Z,19.70
2019-04-07T18:19:59.647Z,18.93
2019-04-07T18:23:00.200Z,20.13
2019-04-07T18:25:57.961Z,21.03
2019-04-07T18:29:16.873Z,21.23
2019-04-07T18:32:12.007Z,20.17
2019-04-07T18:35:06.408Z,19.47
2019-04-07T18:38:09.436Z,19.73
2019-04-07T18:41:10.743Z,19.60
2019-04-07T18:44:11.993Z,19.07
2019-04-07T18:47:03.256Z,20.43
2019-04-07T18:49:52.619Z,18.60
2019-04-07T18:52:55.274Z,21.33
2019-04-07T18:55:40.317Z,21.77
2019-04-07T18:58:28.692Z,20.87
2019-04-07T19:01:18.115Z,20.63
2019-04-07T19:04:06.861Z,21.23
2019-04-07T19:06:58.574Z,21.27
2019-04-07T19:09:47.651Z,21.90
2019-04-07T19:12:37.259Z,21.17
2019-04-07T19:15:38.677Z,20.40
2019-04-07T19:18:36.772Z,21.20
2019-04-07T19:21:28.049Z,20.20
2019-04-07T19:24:25.064Z,21.07
2019-04-07T19:27:13.402Z,18.37
2019-04-07T19:29:53.710Z,20.60
2019-04-07T19:32:52.592Z,19.57
2019-04-07T19:35:49.870Z,18.70
2019-04-07T19:38:39.108Z,19.17
2019-04-07T19:41:35.421Z,18.67
2019-04-07T19:44:37.059Z,18.70
2019-04-07T19:47:10.809Z,18.57
2019-04-07T19:50:09.830Z,18.27
2019-04-07T19:53:10.000Z,17.40
2019-04-07T19:56:05.108Z,19.13
2019-04-07T19:58:53.541Z,19.47
2019-04-07T20:01:42.201Z,19.13
2019-04-07T20:04:22.795Z,18.77
2019-04-07T20:07:30.185Z,18.77
2019-04-07T20:10:26.027Z,19.63
2019-04-07T20:13:19.804Z,18.87
2019-04-07T20:16:03.205Z,20.10
2019-04-07T20:18:59.648Z,20.10
2019-04-07T20:21:55.004Z,19.23
2019-04-07T20:24:42.372Z,19.40
2019-04-07T20:27:40.884Z,20.37
2019-04-07T20:30:29.667Z,19.87
2019-04-07T20:33:18.905Z,20.50
2019-04-07T20:36:17.657Z,18.70
2019-04-07T20:39:17.168Z,19.10
2019-04-07T20:42:48.454Z,18.60
2019-04-07T20:45:47.455Z,19.00
2019-04-07T20:48:54.150Z,19.50
2019-04-07T20:51:50.556Z,18.07
2019-04-07T20:54:38.930Z,17.93
2019-04-07T20:57:38.954Z,18.53
2019-04-07T21:00:26.322Z,20.23
2019-04-07T21:03:19.783Z,19.83
2019-04-07T21:06:00.095Z,20.03
2019-04-07T21:08:39.966Z,20.30
2019-04-07T21:11:26.315Z,18.27
2019-04-07T21:14:21.134Z,18.67
2019-04-07T21:17:07.423Z,18.60
2019-04-07T21:19:51.243Z,18.37
2019-04-07T21:22:55.939Z,17.90
2019-04-07T21:25:54.091Z,17.67
2019-04-07T21:28:45.247Z,18.03
2019-04-07T21:31:36.479Z,17.47
2019-04-07T21:34:22.885Z,17.30
2019-04-07T21:37:01.931Z,18.27
2019-04-07T21:39:53.653Z,17.83
2019-04-07T21:42:57.252Z,17.07
2019-04-07T21:45:52.778Z,17.23
2019-04-07T21:48:35.706Z,17.30
2019-04-07T21:51:23.706Z,16.70
2019-04-07T21:54:09.790Z,16.50
2019-04-07T21:57:11.085Z,17.17
2019-04-07T21:59:59.059Z,16.83
2019-04-07T22:02:40.656Z,17.13
2019-04-07T22:05:34.927Z,16.37
2019-04-07T22:08:49.711Z,16.23
2019-04-07T22:11:51.500Z,16.33
2019-04-07T22:14:22.845Z,16.27
2019-04-07T22:17:04.141Z,16.13
2019-04-07T22:19:43.291Z,16.20
2019-04-07T22:22:14.481Z,16.47
2019-04-07T22:24:54.455Z,16.27
2019-04-07T22:27:38.947Z,15.77
2019-04-07T22:30:12.024Z,16.30
2019-04-07T22:32:42.868Z,16.63
2019-04-07T22:35:21.023Z,16.40
2019-04-07T22:37:52.618Z,17.43
2019-04-07T22:40:26.825Z,17.07
2019-04-07T22:42:59.897Z,16.37
2019-04-07T22:45:35.097Z,16.10
2019-04-07T22:48:12.073Z,17.53
2019-04-07T22:50:41.250Z,17.67
2019-04-07T22:53:12.289Z,16.73
2019-04-07T22:55:43.004Z,17.33
2019-04-07T22:58:13.900Z,17.97
2019-04-07T23:00:44.585Z,17.73
2019-04-07T23:03:17.571Z,17.30
2019-04-07T23:05:49.340Z,23.03
2019-04-07T23:08:20.856Z,17.70
2019-04-07T23:10:51.469Z,18.63
2019-04-07T23:13:25.842Z,18.40
2019-04-07T23:16:09.017Z,17.10
2019-04-07T23:18:32.650Z,18.37
2019-04-07T23:21:06.012Z,17.40
2019-04-07T23:23:37.771Z,18.63
2019-04-07T23:26:08.283Z,17.43
2019-04-07T23:28:47.190Z,18.73
2019-04-07T23:31:16.919Z,17.93
2019-04-07T23:33:50.214Z,18.20
2019-04-07T23:36:22.107Z,24.33
2019-04-07T23:38:53.757Z,19.03
2019-04-07T23:41:25.451Z,18.27
2019-04-07T23:43:56.801Z,19.17
2019-04-07T23:46:29.689Z,24.97
2019-04-07T23:49:01.516Z,18.27
2019-04-07T23:51:32.476Z,18.70
2019-04-07T23:54:14.551Z,18.90
2019-04-07T23:56:50.023Z,18.10
2019-04-07T23:59:20.917Z,18.53
